createdAt,value
2023-03-14T00:01:12.051Z,57.22
2023-03-14T00:03:40.379Z,57.63
2023-03-14T00:06:09.211Z,57.65
2023-03-14T00:08:37.588Z,58.10
2023-03-14T00:11:08.525Z,58.33
2023-03-14T00:13:36.685Z,58.20
2023-03-14T00:16:13.563Z,58.30
2023-03-14T00:18:42.085Z,58.85
2023-03-14T00:21:11.744Z,59.12
2023-03-14T00:23:41.854Z,59.39
2023-03-14T00:26:15.098Z,59.27
2023-03-14T00:28:44.055Z,59.34
2023-03-14T00:31:15.303Z,59.52
2023-03-14T00:33:45.060Z,59.39
2023-03-14T00:36:15.567Z,59.23
2023-03-14T00:38:45.139Z,59.39
2023-03-14T00:41:16.646Z,59.02
2023-03-14T00:43:45.020Z,58.99
2023-03-14T00:46:14.073Z,59.15
2023-03-14T00:48:42.242Z,59.15
2023-03-14T00:51:10.669Z,59.25
2023-03-14T00:53:40.207Z,59.19
2023-03-14T00:56:11.088Z,59.41
2023-03-14T00:58:39.711Z,59.42
2023-03-14T01:01:15.633Z,59.52
2023-03-14T01:03:43.493Z,59.45
2023-03-14T01:06:18.470Z,59.50
2023-03-14T01:08:47.345Z,59.47
2023-03-14T01:11:18.805Z,59.43
2023-03-14T01:13:47.376Z,59.45
2023-03-14T01:16:15.976Z,59.49
2023-03-14T01:18:45.457Z,59.66
2023-03-14T01:21:26.177Z,59.62
2023-03-14T01:23:55.637Z,59.86
2023-03-14T01:26:26.946Z,59.77
2023-03-14T01:28:56.593Z,59.47
2023-03-14T01:31:25.747Z,59.35
2023-03-14T01:33:54.005Z,59.37
2023-03-14T01:36:21.958Z,59.28
2023-03-14T01:38:49.919Z,59.64
2023-03-14T01:41:22.670Z,59.85
2023-03-14T01:43:50.936Z,60.17
2023-03-14T01:46:20.997Z,60.36
2023-03-14T01:49:13.667Z,60.69
2023-03-14T01:52:05.048Z,60.71
2023-03-14T01:54:38.338Z,60.76
2023-03-14T01:57:14.602Z,60.90
2023-03-14T01:59:49.793Z,61.17
2023-03-14T02:02:17.902Z,61.28
2023-03-14T02:04:46.450Z,61.21
2023-03-14T02:07:23.524Z,61.21
2023-03-14T02:09:52.470Z,61.36
2023-03-14T02:12:22.649Z,61.44
2023-03-14T02:14:50.627Z,61.62
2023-03-14T02:17:20.350Z,61.33
2023-03-14T02:19:48.096Z,60.65
2023-03-14T02:22:17.489Z,60.50
2023-03-14T02:25:07.867Z,60.55
2023-03-14T02:27:36.508Z,60.55
2023-03-14T02:30:12.060Z,60.34
2023-03-14T02:32:44.822Z,60.11
2023-03-14T02:35:16.511Z,60.00
2023-03-14T02:38:04.767Z,60.03
2023-03-14T02:40:32.762Z,59.76
2023-03-14T02:43:00.757Z,59.65
2023-03-14T02:45:41.723Z,59.70
2023-03-14T02:48:17.856Z,59.61
2023-03-14T02:50:51.735Z,59.76
2023-03-14T02:53:24.759Z,59.85
2023-03-14T02:55:52.716Z,59.74
2023-03-14T02:58:21.281Z,59.68
2023-03-14T03:00:49.758Z,59.96
2023-03-14T03:03:17.757Z,60.52
2023-03-14T03:05:49.738Z,60.90
2023-03-14T03:08:19.051Z,61.11
2023-03-14T03:10:47.551Z,60.85
2023-03-14T03:13:16.059Z,60.74
2023-03-14T03:15:44.363Z,60.58
2023-03-14T03:18:12.289Z,60.64
2023-03-14T03:20:40.105Z,60.60
2023-03-14T03:23:08.021Z,61.26
2023-03-14T03:25:35.917Z,60.96
2023-03-14T03:28:08.562Z,60.90
2023-03-14T03:30:43.177Z,61.12
2023-03-14T03:33:11.996Z,61.06
2023-03-14T03:35:47.527Z,61.42
2023-03-14T03:38:16.349Z,61.79
2023-03-14T03:40:44.857Z,62.19
2023-03-14T03:43:12.746Z,62.48
2023-03-14T03:45:41.260Z,62.50
2023-03-14T03:48:09.140Z,62.53
2023-03-14T03:50:37.077Z,62.73
2023-03-14T03:53:04.955Z,62.51
2023-03-14T03:55:32.758Z,62.49
2023-03-14T03:58:00.555Z,62.57
2023-03-14T04:00:28.436Z,62.29
2023-03-14T04:02:56.458Z,62.19
2023-03-14T04:05:24.702Z,62.13
2023-03-14T04:07:58.256Z,61.92
2023-03-14T04:10:40.063Z,61.73
2023-03-14T04:13:07.943Z,61.58
2023-03-14T04:15:35.816Z,61.86
2023-03-14T04:18:03.848Z,61.85
2023-03-14T04:20:31.804Z,61.90
2023-03-14T04:22:59.643Z,62.30
2023-03-14T04:25:27.679Z,62.10
2023-03-14T04:27:55.767Z,61.94
2023-03-14T04:30:23.823Z,62.31
2023-03-14T04:32:56.401Z,62.12
2023-03-14T04:35:24.635Z,61.90
2023-03-14T04:37:55.152Z,62.01
2023-03-14T04:40:24.898Z,62.49
2023-03-14T04:42:53.339Z,62.63
2023-03-14T04:45:21.344Z,62.70
2023-03-14T04:47:49.238Z,62.78
2023-03-14T04:50:17.015Z,63.08
2023-03-14T04:52:45.035Z,63.06
2023-03-14T04:55:24.453Z,62.93
2023-03-14T04:57:58.039Z,63.30
2023-03-14T05:00:26.181Z,63.36
2023-03-14T05:02:54.221Z,63.34
2023-03-14T05:05:22.584Z,63.01
2023-03-14T05:07:50.648Z,62.84
2023-03-14T05:10:18.627Z,62.91
2023-03-14T05:12:46.424Z,62.90
2023-03-14T05:15:16.405Z,63.15
2023-03-14T05:17:44.714Z,62.98
2023-03-14T05:20:15.576Z,62.72
2023-03-14T05:22:45.117Z,62.97
2023-03-14T05:25:13.297Z,62.81
2023-03-14T05:27:41.133Z,62.86
2023-03-14T05:30:10.092Z,62.76
2023-03-14T05:32:37.964Z,62.74
2023-03-14T05:35:06.367Z,62.88
2023-03-14T05:37:35.573Z,62.80
2023-03-14T05:40:04.321Z,62.67
2023-03-14T05:42:32.248Z,62.56
2023-03-14T05:45:00.131Z,62.96
2023-03-14T05:47:28.056Z,62.50
2023-03-14T05:49:56.004Z,62.23
2023-03-14T05:52:23.862Z,62.30
2023-03-14T05:54:51.661Z,62.13
2023-03-14T05:57:19.495Z,62.12
2023-03-14T05:59:47.382Z,61.96
2023-03-14T06:02:15.231Z,61.95
2023-03-14T06:04:43.140Z,61.87
2023-03-14T06:07:11.028Z,62.01
2023-03-14T06:09:40.591Z,61.47
2023-03-14T06:12:08.502Z,61.16
2023-03-14T06:14:36.405Z,60.98
2023-03-14T06:17:04.322Z,60.72
2023-03-14T06:19:32.424Z,60.40
2023-03-14T06:22:00.389Z,60.21
2023-03-14T06:24:28.368Z,60.35
2023-03-14T06:26:56.188Z,60.46
2023-03-14T06:29:24.104Z,59.97
2023-03-14T06:31:51.981Z,59.81
2023-03-14T06:34:19.779Z,59.95
2023-03-14T06:36:48.323Z,60.02
2023-03-14T06:39:18.168Z,59.73
2023-03-14T06:41:46.528Z,59.59
2023-03-14T06:44:14.428Z,59.64
2023-03-14T06:46:42.377Z,59.69
2023-03-14T06:49:10.226Z,59.73
2023-03-14T06:51:38.123Z,59.39
2023-03-14T06:54:06.136Z,59.45
2023-03-14T06:56:33.990Z,59.36
2023-03-14T06:59:01.829Z,59.15
2023-03-14T07:01:31.928Z,59.19
2023-03-14T07:03:59.946Z,59.37
2023-03-14T07:06:30.310Z,59.16
2023-03-14T07:08:58.476Z,58.75
2023-03-14T07:11:27.395Z,58.75
2023-03-14T07:13:55.364Z,58.47
2023-03-14T07:16:23.311Z,58.11
2023-03-14T07:18:51.125Z,58.02
2023-03-14T07:21:19.022Z,57.47
2023-03-14T07:23:46.911Z,56.85
2023-03-14T07:26:14.872Z,56.96
2023-03-14T07:28:42.809Z,56.65
2023-03-14T07:31:11.277Z,56.41
2023-03-14T07:33:39.329Z,55.97
2023-03-14T07:36:07.978Z,55.32
2023-03-14T07:38:36.191Z,54.58
2023-03-14T07:41:06.576Z,53.96
2023-03-14T07:43:34.741Z,54.34
2023-03-14T07:46:02.832Z,53.68
2023-03-14T07:48:31.036Z,52.99
2023-03-14T07:50:58.848Z,52.34
2023-03-14T07:53:26.834Z,51.63
2023-03-14T07:55:55.725Z,51.43
2023-03-14T07:58:23.986Z,50.75
2023-03-14T08:00:52.981Z,50.20
2023-03-14T08:03:21.092Z,49.48
2023-03-14T08:05:50.567Z,49.53
2023-03-14T08:08:19.060Z,48.67
2023-03-14T08:10:47.462Z,48.19
2023-03-14T08:13:15.347Z,47.43
2023-03-14T08:15:43.282Z,47.28
2023-03-14T08:18:11.388Z,46.66
2023-03-14T08:20:39.242Z,46.56
2023-03-14T08:23:07.059Z,46.10
2023-03-14T08:25:35.285Z,45.77
2023-03-14T08:28:03.185Z,44.79
2023-03-14T08:30:31.349Z,44.65
2023-03-14T08:32:59.526Z,43.89
2023-03-14T08:35:28.307Z,43.21
2023-03-14T08:37:56.863Z,43.37
2023-03-14T08:40:24.908Z,42.98
2023-03-14T08:42:52.975Z,43.41
2023-03-14T08:45:21.113Z,43.16
2023-03-14T08:47:49.082Z,42.96
2023-03-14T08:50:17.056Z,43.15
2023-03-14T08:52:44.991Z,42.93
2023-03-14T08:55:13.024Z,42.73
2023-03-14T08:57:40.963Z,42.62
2023-03-14T09:00:12.021Z,42.74
2023-03-14T09:02:39.966Z,42.93
2023-03-14T09:05:08.503Z,42.80
2023-03-14T09:07:36.620Z,42.88
2023-03-14T09:10:05.026Z,42.81
2023-03-14T09:12:33.321Z,42.25
2023-03-14T09:15:01.226Z,42.04
2023-03-14T09:17:29.140Z,42.19
2023-03-14T09:20:00.054Z,41.36
2023-03-14T09:22:28.340Z,41.34
2023-03-14T09:24:56.232Z,41.11
2023-03-14T09:27:24.170Z,40.99
2023-03-14T09:29:52.192Z,41.36
2023-03-14T09:32:20.140Z,41.79
2023-03-14T09:34:48.076Z,41.67
2023-03-14T09:37:17.334Z,41.22
2023-03-14T09:39:45.191Z,41.64
2023-03-14T09:42:18.652Z,41.07
2023-03-14T09:45:00.831Z,40.12
2023-03-14T09:47:29.292Z,40.81
2023-03-14T09:49:57.161Z,41.45
2023-03-14T09:52:31.938Z,41.13
2023-03-14T09:55:04.895Z,40.49
2023-03-14T09:57:36.462Z,40.45
2023-03-14T10:00:18.372Z,40.03
2023-03-14T10:03:21.639Z,39.72
2023-03-14T10:05:49.693Z,39.98
2023-03-14T10:08:17.578Z,40.12
2023-03-14T10:10:45.608Z,39.90
2023-03-14T10:13:27.136Z,39.65
2023-03-14T10:16:00.068Z,39.05
2023-03-14T10:18:31.301Z,37.95
2023-03-14T10:21:17.826Z,36.92
2023-03-14T10:23:48.539Z,37.05
2023-03-14T10:26:20.202Z,36.41
2023-03-14T10:29:11.031Z,35.11
2023-03-14T10:31:55.428Z,34.99
2023-03-14T10:34:32.322Z,34.56
2023-03-14T10:37:22.270Z,34.27
2023-03-14T10:39:53.045Z,33.42
2023-03-14T10:42:35.513Z,32.78
2023-03-14T10:45:08.963Z,32.73
2023-03-14T10:47:36.872Z,32.66
2023-03-14T10:50:26.614Z,32.24
2023-03-14T10:53:03.712Z,31.97
2023-03-14T10:55:46.193Z,31.91
2023-03-14T10:58:29.481Z,31.69
2023-03-14T11:01:26.534Z,31.34
2023-03-14T11:04:09.420Z,31.16
2023-03-14T11:07:03.427Z,30.96
2023-03-14T11:09:37.132Z,30.04
2023-03-14T11:12:25.884Z,29.60
2023-03-14T11:15:03.389Z,30.07
2023-03-14T11:17:49.872Z,29.63
2023-03-14T11:20:39.653Z,28.95
2023-03-14T11:23:15.764Z,28.46
2023-03-14T11:25:52.679Z,27.64
2023-03-14T11:28:39.838Z,28.29
2023-03-14T11:31:21.110Z,27.18
2023-03-14T11:34:02.047Z,27.09
2023-03-14T11:36:41.413Z,26.59
2023-03-14T11:39:17.412Z,26.63
2023-03-14T11:41:52.292Z,26.74
2023-03-14T11:44:31.713Z,25.96
2023-03-14T11:47:15.412Z,25.78
2023-03-14T11:49:51.840Z,27.35
2023-03-14T11:52:25.847Z,27.50
2023-03-14T11:55:03.696Z,26.59
2023-03-14T11:57:31.601Z,25.85
2023-03-14T12:00:13.359Z,26.19
2023-03-14T12:02:59.159Z,26.13
2023-03-14T12:05:48.843Z,25.85
2023-03-14T12:08:52.257Z,25.77
2023-03-14T12:11:29.065Z,26.09
2023-03-14T12:13:57.150Z,26.44
2023-03-14T12:16:25.006Z,26.63
2023-03-14T12:18:54.382Z,27.26
2023-03-14T12:21:24.085Z,27.12
2023-03-14T12:23:58.382Z,26.92
2023-03-14T12:26:42.766Z,27.22
2023-03-14T12:29:16.568Z,27.09
2023-03-14T12:31:50.359Z,26.44
2023-03-14T12:34:18.197Z,26.05
2023-03-14T12:36:51.940Z,25.85
2023-03-14T12:39:23.544Z,25.84
2023-03-14T12:42:05.327Z,25.83
2023-03-14T12:44:33.130Z,25.54
2023-03-14T12:47:19.431Z,25.33
2023-03-14T12:49:53.312Z,25.52
2023-03-14T12:52:33.765Z,25.50
2023-03-14T12:55:16.252Z,25.23
2023-03-14T12:58:00.589Z,24.70
2023-03-14T13:00:34.317Z,24.67
2023-03-14T13:03:26.246Z,24.64
2023-03-14T13:06:00.164Z,24.70
2023-03-14T13:08:45.687Z,24.33
2023-03-14T13:11:17.980Z,24.21
2023-03-14T13:13:50.875Z,24.71
2023-03-14T13:16:21.866Z,24.98
2023-03-14T13:18:59.704Z,24.18
2023-03-14T13:21:29.386Z,23.77
2023-03-14T13:24:04.765Z,23.74
2023-03-14T13:26:38.542Z,23.32
2023-03-14T13:29:32.409Z,23.50
2023-03-14T13:32:17.237Z,23.57
2023-03-14T13:34:45.147Z,23.52
2023-03-14T13:37:22.818Z,23.22
2023-03-14T13:39:52.592Z,23.45
2023-03-14T13:42:20.500Z,23.35
2023-03-14T13:44:48.870Z,23.14
2023-03-14T13:47:19.587Z,23.47
2023-03-14T13:49:49.372Z,23.74
2023-03-14T13:52:37.236Z,23.66
2023-03-14T13:55:07.029Z,23.38
2023-03-14T13:58:04.455Z,23.26
2023-03-14T14:00:32.539Z,23.05
2023-03-14T14:03:01.360Z,23.40
2023-03-14T14:05:32.369Z,23.36
2023-03-14T14:08:00.946Z,22.81
2023-03-14T14:10:30.473Z,22.90
2023-03-14T14:13:07.015Z,23.19
2023-03-14T14:15:42.847Z,23.37
2023-03-14T14:18:15.843Z,23.35
2023-03-14T14:20:47.620Z,23.37
2023-03-14T14:23:29.901Z,23.08
2023-03-14T14:25:58.908Z,22.74
2023-03-14T14:28:27.920Z,22.84
2023-03-14T14:31:09.228Z,22.75
2023-03-14T14:33:43.647Z,22.60
2023-03-14T14:36:27.895Z,23.17
2023-03-14T14:38:59.484Z,23.15
2023-03-14T14:41:31.666Z,23.44
2023-03-14T14:44:00.900Z,23.85
2023-03-14T14:46:32.914Z,23.73
2023-03-14T14:49:06.995Z,23.63
2023-03-14T14:51:44.689Z,24.06
2023-03-14T14:54:14.781Z,24.11
2023-03-14T14:56:49.850Z,24.23
2023-03-14T14:59:30.052Z,24.15
2023-03-14T15:02:01.528Z,24.02
2023-03-14T15:04:32.924Z,24.35
2023-03-14T15:07:00.972Z,24.72
2023-03-14T15:09:28.871Z,24.67
2023-03-14T15:11:56.774Z,24.68
2023-03-14T15:14:24.686Z,24.85
2023-03-14T15:16:52.542Z,24.99
2023-03-14T15:19:25.663Z,25.67
2023-03-14T15:21:54.602Z,25.74
2023-03-14T15:24:25.864Z,26.03
2023-03-14T15:26:53.977Z,25.93
2023-03-14T15:29:21.933Z,26.08
2023-03-14T15:31:49.954Z,26.20
2023-03-14T15:34:17.922Z,26.01
2023-03-14T15:36:45.782Z,26.20
2023-03-14T15:39:13.701Z,26.64
2023-03-14T15:41:41.919Z,26.66
2023-03-14T15:44:09.797Z,26.77
2023-03-14T15:46:37.748Z,27.13
2023-03-14T15:49:06.016Z,27.32
2023-03-14T15:51:42.029Z,27.48
2023-03-14T15:54:11.223Z,27.58
2023-03-14T15:56:40.652Z,27.72
2023-03-14T15:59:09.046Z,28.08
2023-03-14T16:01:37.071Z,28.44
2023-03-14T16:04:05.112Z,28.33
2023-03-14T16:06:33.156Z,28.48
2023-03-14T16:09:01.247Z,28.52
2023-03-14T16:11:29.213Z,28.88
2023-03-14T16:13:56.978Z,29.03
2023-03-14T16:16:25.221Z,29.06
2023-03-14T16:18:53.115Z,29.04
2023-03-14T16:21:21.332Z,29.15
2023-03-14T16:23:49.342Z,29.37
2023-03-14T16:26:20.195Z,29.51
2023-03-14T16:28:48.108Z,29.26
2023-03-14T16:31:21.627Z,29.42
2023-03-14T16:33:49.712Z,29.36
2023-03-14T16:36:17.579Z,29.55
2023-03-14T16:38:46.769Z,29.65
2023-03-14T16:41:18.273Z,29.88
2023-03-14T16:43:52.430Z,29.54
2023-03-14T16:46:22.775Z,29.58
2023-03-14T16:48:51.407Z,29.75
2023-03-14T16:51:19.419Z,29.60
2023-03-14T16:53:47.816Z,30.03
2023-03-14T16:56:16.183Z,29.95
2023-03-14T16:58:44.955Z,30.26
2023-03-14T17:01:18.314Z,30.09
2023-03-14T17:03:49.342Z,30.29
2023-03-14T17:06:29.114Z,30.16
2023-03-14T17:08:57.843Z,29.85
2023-03-14T17:11:25.942Z,29.89
2023-03-14T17:13:54.177Z,29.78
2023-03-14T17:16:24.685Z,29.85
2023-03-14T17:18:53.441Z,29.77
2023-03-14T17:21:22.490Z,29.80
2023-03-14T17:23:50.828Z,29.85
2023-03-14T17:26:19.257Z,29.71
2023-03-14T17:28:47.121Z,29.52
2023-03-14T17:31:18.034Z,29.50
2023-03-14T17:33:46.088Z,29.69
2023-03-14T17:36:14.896Z,29.66
2023-03-14T17:38:43.034Z,29.57
2023-03-14T17:41:13.374Z,29.56
2023-03-14T17:43:42.327Z,29.86
2023-03-14T17:46:15.310Z,30.14
2023-03-14T17:48:48.212Z,30.07
2023-03-14T17:51:17.261Z,30.43
2023-03-14T17:53:45.424Z,30.54
2023-03-14T17:56:13.395Z,30.77
2023-03-14T17:58:44.084Z,30.95
2023-03-14T18:01:16.756Z,31.26
2023-03-14T18:03:45.747Z,31.56
2023-03-14T18:06:16.062Z,31.43
2023-03-14T18:08:47.417Z,31.29
2023-03-14T18:11:16.436Z,31.45
2023-03-14T18:13:45.761Z,31.36
2023-03-14T18:16:14.696Z,31.38
2023-03-14T18:18:47.811Z,31.40
2023-03-14T18:21:18.469Z,31.57
2023-03-14T18:23:48.356Z,31.46
2023-03-14T18:26:16.581Z,32.04
2023-03-14T18:28:45.048Z,32.24
2023-03-14T18:31:17.685Z,32.75
2023-03-14T18:33:47.984Z,32.60
2023-03-14T18:36:17.299Z,32.79
2023-03-14T18:38:48.519Z,32.57
2023-03-14T18:41:20.292Z,32.72
2023-03-14T18:43:48.216Z,32.86
2023-03-14T18:46:16.470Z,33.03
2023-03-14T18:48:44.590Z,33.68
2023-03-14T18:51:17.933Z,34.28
2023-03-14T18:53:46.523Z,34.47
2023-03-14T18:56:15.564Z,34.97
2023-03-14T18:58:43.681Z,34.95
2023-03-14T19:01:12.826Z,35.45
2023-03-14T19:03:42.402Z,35.95
2023-03-14T19:06:12.118Z,36.23
2023-03-14T19:08:44.615Z,36.30
2023-03-14T19:11:14.368Z,36.37
2023-03-14T19:13:43.230Z,36.45
2023-03-14T19:16:13.130Z,36.75
2023-03-14T19:18:42.120Z,37.05
2023-03-14T19:21:12.970Z,37.43
2023-03-14T19:23:43.682Z,37.65
2023-03-14T19:26:11.674Z,37.84
2023-03-14T19:28:40.101Z,37.90
2023-03-14T19:31:09.452Z,37.82
2023-03-14T19:33:47.533Z,37.70
2023-03-14T19:36:43.446Z,37.60
2023-03-14T19:39:11.627Z,37.41
2023-03-14T19:41:39.856Z,37.72
2023-03-14T19:44:08.149Z,37.50
2023-03-14T19:46:36.192Z,37.47
2023-03-14T19:49:08.000Z,37.53
2023-03-14T19:51:36.176Z,37.85
2023-03-14T19:54:05.172Z,38.06
2023-03-14T19:56:34.280Z,38.45
2023-03-14T19:59:05.339Z,38.93
2023-03-14T20:01:35.181Z,39.75
2023-03-14T20:04:04.454Z,40.17
2023-03-14T20:06:34.487Z,40.44
2023-03-14T20:09:02.899Z,40.49
2023-03-14T20:11:31.178Z,40.56
2023-03-14T20:13:59.030Z,41.34
2023-03-14T20:16:27.115Z,41.64
2023-03-14T20:18:54.986Z,41.48
2023-03-14T20:21:22.931Z,41.65
2023-03-14T20:23:51.492Z,42.01
2023-03-14T20:26:19.520Z,42.65
2023-03-14T20:28:48.254Z,42.74
2023-03-14T20:31:16.396Z,42.82
2023-03-14T20:33:44.431Z,43.37
2023-03-14T20:36:12.353Z,43.03
2023-03-14T20:38:40.585Z,42.93
2023-03-14T20:41:10.686Z,43.25
2023-03-14T20:43:38.908Z,42.84
2023-03-14T20:46:07.057Z,42.66
2023-03-14T20:48:35.064Z,43.32
2023-03-14T20:51:02.918Z,43.66
2023-03-14T20:53:31.212Z,44.06
2023-03-14T20:55:59.080Z,44.36
2023-03-14T20:58:27.294Z,44.23
2023-03-14T21:00:57.584Z,44.28
2023-03-14T21:03:26.209Z,44.24
2023-03-14T21:05:54.325Z,43.85
2023-03-14T21:08:24.839Z,43.57
2023-03-14T21:10:55.385Z,43.48
2023-03-14T21:13:24.351Z,44.31
2023-03-14T21:15:52.440Z,44.48
2023-03-14T21:18:23.216Z,44.52
2023-03-14T21:20:54.339Z,43.99
2023-03-14T21:23:26.745Z,43.75
2023-03-14T21:25:56.922Z,44.09
2023-03-14T21:28:24.968Z,44.16
2023-03-14T21:30:53.419Z,44.38
2023-03-14T21:33:21.761Z,44.87
2023-03-14T21:35:52.767Z,45.06
2023-03-14T21:38:21.117Z,44.42
2023-03-14T21:40:50.499Z,43.48
2023-03-14T21:43:21.845Z,42.96
2023-03-14T21:45:50.512Z,42.14
2023-03-14T21:48:18.451Z,42.00
2023-03-14T21:50:47.320Z,41.73
2023-03-14T21:53:15.549Z,41.62
2023-03-14T21:55:45.059Z,41.17
2023-03-14T21:58:14.900Z,40.69
2023-03-14T22:00:50.370Z,40.92
2023-03-14T22:03:25.040Z,40.81
2023-03-14T22:05:53.063Z,41.07
2023-03-14T22:08:22.756Z,41.36
2023-03-14T22:10:52.788Z,41.51
2023-03-14T22:13:23.715Z,41.15
2023-03-14T22:15:52.627Z,40.82
2023-03-14T22:18:20.518Z,40.78
2023-03-14T22:20:48.452Z,40.89
2023-03-14T22:23:17.040Z,41.16
2023-03-14T22:25:49.431Z,42.11
2023-03-14T22:28:21.150Z,42.60
2023-03-14T22:30:50.507Z,42.50
2023-03-14T22:33:19.330Z,42.06
2023-03-14T22:35:51.807Z,42.92
2023-03-14T22:38:20.061Z,43.13
2023-03-14T22:40:48.699Z,43.31
2023-03-14T22:43:17.676Z,44.08
2023-03-14T22:45:46.164Z,44.54
2023-03-14T22:48:15.433Z,45.01
2023-03-14T22:50:43.451Z,45.15
2023-03-14T22:53:11.361Z,45.26
2023-03-14T22:55:39.209Z,45.81
2023-03-14T22:58:07.558Z,45.74
2023-03-14T23:00:35.353Z,45.93
2023-03-14T23:03:03.259Z,46.04
2023-03-14T23:05:31.258Z,46.41
2023-03-14T23:07:59.160Z,46.56
2023-03-14T23:10:27.045Z,46.68
2023-03-14T23:12:57.606Z,46.65
2023-03-14T23:15:27.115Z,46.57
2023-03-14T23:17:55.011Z,46.58
2023-03-14T23:20:23.288Z,46.58
2023-03-14T23:22:51.267Z,46.52
2023-03-14T23:25:20.028Z,46.74
2023-03-14T23:27:47.928Z,46.92
2023-03-14T23:30:17.288Z,47.05
2023-03-14T23:32:45.339Z,47.03
2023-03-14T23:35:14.702Z,47.06
2023-03-14T23:37:42.618Z,46.99
2023-03-14T23:40:11.405Z,47.29
2023-03-14T23:42:39.856Z,47.30
2023-03-14T23:45:08.052Z,47.25
2023-03-14T23:47:35.894Z,47.55
2023-03-14T23:50:04.085Z,47.46
2023-03-14T23:52:32.049Z,47.34
2023-03-14T23:54:59.938Z,47.34
2023-03-14T23:57:27.828Z,47.36
2023-03-14T23:59:55.698Z,47.43
